createdAt,value
2023-06-30T00:01:18.178Z,7.38
2023-06-30T00:03:47.108Z,7.00
2023-06-30T00:06:15.589Z,6.53
2023-06-30T00:08:44.026Z,6.68
2023-06-30T00:11:12.564Z,7.93
2023-06-30T00:13:41.060Z,8.40
2023-06-30T00:16:09.558Z,7.40
2023-06-30T00:18:37.866Z,8.10
2023-06-30T00:21:06.380Z,7.80
2023-06-30T00:23:34.769Z,6.25
2023-06-30T00:26:03.371Z,5.57
2023-06-30T00:28:31.845Z,7.43
2023-06-30T00:31:00.225Z,6.43
2023-06-30T00:33:28.536Z,6.90
2023-06-30T00:35:57.028Z,8.32
2023-06-30T00:38:25.296Z,6.82
2023-06-30T00:40:54.178Z,6.20
2023-06-30T00:43:22.659Z,7.15
2023-06-30T00:45:51.122Z,6.05
2023-06-30T00:48:19.458Z,6.57
2023-06-30T00:50:47.974Z,5.72
2023-06-30T00:53:16.439Z,5.93
2023-06-30T00:55:45.054Z,7.85
2023-06-30T00:58:13.671Z,6.95
2023-06-30T01:00:42.015Z,7.32
2023-06-30T01:03:33.839Z,6.40
2023-06-30T01:06:18.708Z,6.07
2023-06-30T01:08:56.509Z,6.47
2023-06-30T01:11:25.720Z,6.35
2023-06-30T01:13:56.725Z,6.25
2023-06-30T01:16:26.335Z,6.18
2023-06-30T01:18:57.544Z,5.60
2023-06-30T01:21:26.520Z,6.55
2023-06-30T01:24:00.007Z,5.50
2023-06-30T01:26:28.830Z,5.93
2023-06-30T01:28:57.535Z,6.20
2023-06-30T01:31:26.123Z,6.28
2023-06-30T01:33:54.588Z,6.38
2023-06-30T01:36:23.157Z,6.78
2023-06-30T01:38:52.292Z,6.45
2023-06-30T01:41:22.634Z,5.75
2023-06-30T01:43:52.462Z,6.25
2023-06-30T01:46:20.990Z,6.57
2023-06-30T01:48:50.290Z,5.55
2023-06-30T01:51:20.320Z,6.88
2023-06-30T01:53:49.036Z,5.82
2023-06-30T01:56:17.529Z,7.00
2023-06-30T01:58:45.940Z,8.05
2023-06-30T02:01:14.489Z,10.00
2023-06-30T02:03:42.983Z,11.95
2023-06-30T02:06:11.512Z,12.25
2023-06-30T02:08:42.184Z,13.73
2023-06-30T02:11:10.601Z,13.10
2023-06-30T02:13:39.665Z,14.65
2023-06-30T02:16:08.158Z,15.63
2023-06-30T02:18:36.741Z,16.02
2023-06-30T02:21:05.102Z,15.65
2023-06-30T02:23:33.647Z,16.27
2023-06-30T02:26:02.261Z,14.80
2023-06-30T02:28:31.954Z,14.95
2023-06-30T02:31:00.611Z,12.65
2023-06-30T02:33:28.974Z,11.27
2023-06-30T02:35:59.337Z,10.88
2023-06-30T02:38:28.610Z,10.70
2023-06-30T02:40:56.891Z,11.35
2023-06-30T02:43:25.379Z,12.25
2023-06-30T02:45:53.897Z,13.43
2023-06-30T02:48:22.408Z,14.07
2023-06-30T02:50:50.689Z,12.80
2023-06-30T02:53:19.099Z,12.10
2023-06-30T02:55:48.852Z,12.57
2023-06-30T02:58:18.777Z,10.32
2023-06-30T03:00:48.188Z,11.60
2023-06-30T03:03:16.885Z,9.85
2023-06-30T03:05:46.043Z,10.25
2023-06-30T03:08:14.999Z,9.63
2023-06-30T03:10:46.744Z,10.18
2023-06-30T03:13:15.160Z,10.32
2023-06-30T03:15:44.023Z,10.18
2023-06-30T03:18:12.899Z,10.32
2023-06-30T03:20:41.659Z,9.30
2023-06-30T03:23:10.191Z,10.05
2023-06-30T03:25:38.706Z,9.55
2023-06-30T03:28:07.128Z,10.80
2023-06-30T03:30:36.195Z,10.75
2023-06-30T03:33:04.924Z,9.80
2023-06-30T03:35:33.397Z,8.55
2023-06-30T03:38:01.786Z,9.40
2023-06-30T03:40:30.321Z,8.23
2023-06-30T03:42:58.877Z,8.85
2023-06-30T03:45:27.201Z,9.02
2023-06-30T03:47:55.629Z,8.38
2023-06-30T03:50:24.562Z,8.15
2023-06-30T03:52:52.858Z,9.93
2023-06-30T03:55:21.328Z,8.13
2023-06-30T03:57:49.772Z,8.10
2023-06-30T04:00:18.490Z,8.68
2023-06-30T04:02:48.137Z,8.02
2023-06-30T04:05:16.827Z,7.68
2023-06-30T04:07:45.124Z,8.38
2023-06-30T04:10:13.656Z,6.55
2023-06-30T04:12:43.695Z,7.70
2023-06-30T04:15:12.584Z,7.75
2023-06-30T04:17:40.962Z,8.10
2023-06-30T04:20:09.893Z,8.60
2023-06-30T04:22:39.136Z,8.05
2023-06-30T04:25:08.717Z,8.43
2023-06-30T04:27:37.525Z,7.93
2023-06-30T04:30:08.022Z,8.75
2023-06-30T04:32:36.965Z,7.93
2023-06-30T04:35:05.666Z,7.53
2023-06-30T04:37:34.191Z,7.28
2023-06-30T04:40:02.541Z,8.10
2023-06-30T04:42:31.147Z,7.15
2023-06-30T04:44:59.629Z,8.40
2023-06-30T04:47:28.371Z,7.60
2023-06-30T04:49:57.109Z,7.85
2023-06-30T04:52:25.622Z,8.75
2023-06-30T04:54:54.059Z,7.40
2023-06-30T04:57:22.586Z,8.82
2023-06-30T04:59:51.235Z,8.75
2023-06-30T05:02:20.267Z,8.95
2023-06-30T05:04:48.580Z,7.82
2023-06-30T05:07:17.089Z,8.30
2023-06-30T05:09:45.514Z,8.32
2023-06-30T05:12:13.917Z,8.23
2023-06-30T05:14:42.148Z,8.68
2023-06-30T05:17:10.734Z,8.23
2023-06-30T05:19:39.308Z,9.00
2023-06-30T05:22:07.778Z,9.82
2023-06-30T05:24:36.261Z,10.73
2023-06-30T05:27:04.781Z,9.48
2023-06-30T05:29:33.556Z,12.15
2023-06-30T05:32:02.076Z,10.95
2023-06-30T05:34:30.351Z,9.15
2023-06-30T05:36:58.726Z,10.23
2023-06-30T05:39:27.141Z,10.15
2023-06-30T05:41:55.810Z,10.63
2023-06-30T05:44:24.246Z,10.27
2023-06-30T05:46:52.907Z,9.60
2023-06-30T05:49:21.245Z,10.52
2023-06-30T05:51:50.603Z,9.32
2023-06-30T05:54:19.368Z,10.70
2023-06-30T05:56:47.693Z,10.00
2023-06-30T05:59:16.105Z,9.90
2023-06-30T06:01:44.571Z,10.57
2023-06-30T06:04:13.555Z,13.98
2023-06-30T06:06:42.143Z,12.15
2023-06-30T06:09:10.889Z,10.43
2023-06-30T06:11:39.431Z,10.95
2023-06-30T06:14:07.920Z,9.18
2023-06-30T06:16:36.473Z,9.68
2023-06-30T06:19:05.039Z,9.52
2023-06-30T06:21:33.564Z,9.13
2023-06-30T06:24:02.183Z,10.32
2023-06-30T06:26:30.701Z,10.20
2023-06-30T06:30:20.766Z,10.23
2023-06-30T06:32:49.234Z,11.60
2023-06-30T06:35:17.554Z,12.38
2023-06-30T06:37:46.050Z,12.77
2023-06-30T06:40:14.271Z,12.38
2023-06-30T06:42:42.617Z,12.93
2023-06-30T06:45:11.242Z,13.07
2023-06-30T06:48:16.961Z,11.93
2023-06-30T06:50:45.582Z,12.02
2023-06-30T06:53:19.792Z,12.07
2023-06-30T06:55:50.898Z,11.60
2023-06-30T06:58:20.059Z,12.15
2023-06-30T07:00:50.505Z,11.88
2023-06-30T07:03:19.976Z,10.93
2023-06-30T07:05:48.965Z,10.40
2023-06-30T07:08:19.301Z,9.90
2023-06-30T07:10:48.736Z,10.02
2023-06-30T07:13:20.824Z,10.35
2023-06-30T07:15:50.475Z,11.15
2023-06-30T07:18:20.336Z,11.98
2023-06-30T07:20:50.427Z,11.10
2023-06-30T07:23:19.385Z,10.75
2023-06-30T07:25:48.435Z,10.77
2023-06-30T07:28:17.332Z,9.43
2023-06-30T07:30:45.798Z,10.23
2023-06-30T07:33:14.406Z,8.98
2023-06-30T07:35:43.570Z,10.18
2023-06-30T07:38:12.646Z,9.55
2023-06-30T07:40:55.060Z,10.10
2023-06-30T07:43:24.862Z,8.52
2023-06-30T07:45:53.423Z,11.30
2023-06-30T07:48:22.212Z,8.73
2023-06-30T07:50:59.509Z,8.90
2023-06-30T07:53:32.281Z,8.40
2023-06-30T07:56:00.560Z,9.98
2023-06-30T07:58:28.887Z,8.38
2023-06-30T08:00:57.416Z,8.93
2023-06-30T08:03:25.796Z,9.07
2023-06-30T08:05:54.905Z,10.25
2023-06-30T08:08:24.215Z,8.65
2023-06-30T08:10:52.770Z,8.00
2023-06-30T08:13:21.155Z,8.48
2023-06-30T08:15:50.089Z,7.72
2023-06-30T08:18:31.540Z,7.47
2023-06-30T08:21:03.293Z,8.07
2023-06-30T08:23:32.396Z,7.25
2023-06-30T08:26:00.687Z,8.30
2023-06-30T08:28:29.689Z,7.85
2023-06-30T08:30:58.535Z,6.40
2023-06-30T08:36:03.572Z,6.65
2023-06-30T08:38:32.187Z,7.10
2023-06-30T08:41:00.660Z,5.65
2023-06-30T08:43:30.208Z,6.00
2023-06-30T08:46:00.542Z,7.40
2023-06-30T08:48:30.973Z,7.78
2023-06-30T08:51:01.094Z,7.00
2023-06-30T08:53:30.690Z,5.90
2023-06-30T08:56:01.270Z,7.60
2023-06-30T08:58:32.439Z,5.85
2023-06-30T09:03:30.474Z,6.07
2023-06-30T09:06:01.311Z,7.25
2023-06-30T09:09:00.733Z,7.85
2023-06-30T09:11:31.015Z,7.50
2023-06-30T09:14:00.935Z,7.55
2023-06-30T09:16:31.552Z,7.25
2023-06-30T09:19:00.831Z,7.63
2023-06-30T09:21:29.240Z,6.47
2023-06-30T09:23:57.597Z,5.47
2023-06-30T09:26:26.214Z,6.57
2023-06-30T09:28:56.049Z,6.97
2023-06-30T09:31:32.729Z,6.83
2023-06-30T09:34:14.716Z,5.80
2023-06-30T09:36:51.435Z,6.43
2023-06-30T09:39:21.005Z,6.53
2023-06-30T09:41:51.436Z,5.45
2023-06-30T09:44:20.962Z,6.15
2023-06-30T09:46:53.223Z,5.28
2023-06-30T09:49:31.733Z,6.03
2023-06-30T09:52:02.176Z,4.50
2023-06-30T09:57:05.651Z,6.25
2023-06-30T09:59:35.056Z,6.30
2023-06-30T10:02:07.363Z,5.82
2023-06-30T10:04:38.206Z,5.93
2023-06-30T10:07:08.213Z,6.00
2023-06-30T10:09:39.978Z,6.10
2023-06-30T10:12:10.194Z,7.93
2023-06-30T10:14:39.518Z,6.05
2023-06-30T10:17:09.576Z,5.80
2023-06-30T10:19:41.113Z,7.88
2023-06-30T10:24:38.499Z,5.70
2023-06-30T10:27:10.041Z,6.10
2023-06-30T10:29:40.307Z,6.80
2023-06-30T10:32:09.423Z,5.82
2023-06-30T10:34:38.425Z,5.57
2023-06-30T10:37:07.459Z,6.32
2023-06-30T10:39:36.760Z,6.53
2023-06-30T10:42:07.346Z,7.60
2023-06-30T10:44:47.436Z,8.82
2023-06-30T10:47:22.289Z,6.60
2023-06-30T10:49:51.335Z,6.53
2023-06-30T10:52:30.750Z,6.35
2023-06-30T10:55:07.175Z,7.20
2023-06-30T10:57:39.650Z,7.20
2023-06-30T11:00:12.585Z,7.80
2023-06-30T11:02:55.982Z,9.68
2023-06-30T11:05:35.109Z,9.35
2023-06-30T11:08:03.364Z,9.52
2023-06-30T11:10:45.569Z,8.18
2023-06-30T11:15:45.917Z,9.15
2023-06-30T11:18:26.657Z,10.65
2023-06-30T11:21:03.400Z,15.35
2023-06-30T11:23:36.005Z,13.10
2023-06-30T11:26:37.598Z,9.43
2023-06-30T11:29:09.150Z,7.63
2023-06-30T11:31:39.294Z,8.25
2023-06-30T11:34:07.836Z,7.32
2023-06-30T11:36:38.571Z,9.13
2023-06-30T11:39:07.022Z,8.48
2023-06-30T11:41:35.310Z,8.63
2023-06-30T11:44:03.837Z,9.68
2023-06-30T11:46:32.354Z,7.50
2023-06-30T11:49:01.796Z,5.75
2023-06-30T11:51:30.245Z,6.35
2023-06-30T11:53:58.861Z,4.85
2023-06-30T11:56:27.356Z,6.88
2023-06-30T11:58:55.846Z,4.65
2023-06-30T12:01:28.382Z,5.15
2023-06-30T12:04:01.246Z,4.10
2023-06-30T12:06:30.164Z,9.50
2023-06-30T12:08:58.576Z,5.00
2023-06-30T12:11:30.001Z,5.55
2023-06-30T12:13:58.429Z,7.07
2023-06-30T12:16:40.664Z,5.25
2023-06-30T12:19:10.006Z,6.75
2023-06-30T12:21:52.944Z,18.67
2023-06-30T12:24:22.821Z,12.32
2023-06-30T12:26:53.051Z,9.50
2023-06-30T12:29:21.730Z,12.13
2023-06-30T12:31:50.565Z,27.70
2023-06-30T12:34:38.096Z,40.70
2023-06-30T12:37:06.703Z,8.02
2023-06-30T12:39:35.177Z,9.07
2023-06-30T12:42:03.620Z,6.63
2023-06-30T12:44:32.232Z,8.00
2023-06-30T12:47:05.530Z,7.18
2023-06-30T12:49:34.771Z,6.43
2023-06-30T12:52:03.958Z,5.18
2023-06-30T12:54:33.306Z,4.20
2023-06-30T12:57:01.641Z,10.02
2023-06-30T12:59:30.175Z,12.82
2023-06-30T13:01:58.550Z,5.43
2023-06-30T13:04:28.404Z,5.55
2023-06-30T13:06:57.036Z,5.65
2023-06-30T13:09:25.610Z,5.07
2023-06-30T13:11:53.909Z,5.82
2023-06-30T13:14:22.335Z,5.68
2023-06-30T13:16:50.953Z,6.32
2023-06-30T13:19:19.470Z,5.90
2023-06-30T13:21:47.949Z,9.30
2023-06-30T13:24:16.320Z,7.90
2023-06-30T13:26:44.963Z,4.88
2023-06-30T13:29:13.809Z,4.82
2023-06-30T13:31:42.140Z,3.85
2023-06-30T13:34:13.194Z,4.65
2023-06-30T13:36:41.772Z,5.72
2023-06-30T13:39:10.450Z,4.25
2023-06-30T13:41:38.894Z,11.82
2023-06-30T13:44:07.473Z,10.15
2023-06-30T13:46:35.958Z,5.50
2023-06-30T13:49:04.325Z,5.05
2023-06-30T13:51:32.889Z,4.80
2023-06-30T13:54:01.451Z,5.05
2023-06-30T13:56:30.010Z,6.53
2023-06-30T13:58:58.585Z,5.45
2023-06-30T14:01:28.037Z,8.27
2023-06-30T14:03:57.876Z,5.00
2023-06-30T14:06:26.138Z,5.15
2023-06-30T14:08:55.185Z,4.35
2023-06-30T14:11:23.511Z,4.63
2023-06-30T14:13:51.852Z,4.97
2023-06-30T14:16:20.396Z,3.95
2023-06-30T14:18:48.820Z,4.50
2023-06-30T14:21:19.202Z,3.75
2023-06-30T14:23:48.066Z,5.82
2023-06-30T14:26:16.667Z,5.20
2023-06-30T14:28:45.301Z,4.43
2023-06-30T14:31:14.008Z,4.07
2023-06-30T14:33:42.579Z,3.70
2023-06-30T14:36:11.134Z,3.80
2023-06-30T14:38:39.533Z,3.03
2023-06-30T14:41:07.953Z,3.30
2023-06-30T14:43:36.639Z,4.28
2023-06-30T14:46:05.034Z,2.42
2023-06-30T14:48:33.484Z,3.30
2023-06-30T14:51:02.215Z,2.55
2023-06-30T14:53:30.668Z,2.75
2023-06-30T14:55:59.395Z,4.40
2023-06-30T14:58:27.629Z,3.97
2023-06-30T15:00:56.114Z,3.42
2023-06-30T15:03:26.148Z,3.92
2023-06-30T15:05:54.734Z,2.85
2023-06-30T15:08:23.908Z,3.22
2023-06-30T15:10:52.304Z,3.05
2023-06-30T15:13:20.781Z,4.25
2023-06-30T15:15:49.267Z,2.65
2023-06-30T15:18:18.104Z,3.03
2023-06-30T15:20:46.450Z,3.00
2023-06-30T15:23:14.831Z,4.57
2023-06-30T15:25:43.488Z,5.32
2023-06-30T15:28:12.409Z,3.30
2023-06-30T15:30:46.899Z,3.85
2023-06-30T15:33:15.871Z,4.43
2023-06-30T15:35:45.128Z,4.10
2023-06-30T15:38:13.588Z,3.72
2023-06-30T15:40:42.062Z,3.45
2023-06-30T15:43:10.680Z,6.45
2023-06-30T15:45:39.054Z,3.78
2023-06-30T15:48:15.112Z,4.78
2023-06-30T15:50:44.520Z,4.60
2023-06-30T15:53:13.011Z,4.15
2023-06-30T15:55:44.488Z,3.65
2023-06-30T15:58:16.205Z,5.15
2023-06-30T16:00:44.825Z,4.07
2023-06-30T16:03:15.795Z,3.58
2023-06-30T16:05:45.957Z,3.42
2023-06-30T16:08:14.993Z,3.42
2023-06-30T16:10:46.139Z,3.25
2023-06-30T16:13:14.817Z,4.43
2023-06-30T16:15:43.709Z,4.10
2023-06-30T16:18:12.431Z,4.38
2023-06-30T16:20:44.044Z,3.90
2023-06-30T16:23:12.550Z,4.15
2023-06-30T16:25:40.954Z,4.20
2023-06-30T16:28:09.571Z,3.20
2023-06-30T16:30:38.535Z,3.50
2023-06-30T16:33:08.856Z,3.13
2023-06-30T16:35:37.352Z,4.28
2023-06-30T16:38:05.804Z,3.45
2023-06-30T16:40:34.321Z,3.97
2023-06-30T16:43:02.863Z,4.43
2023-06-30T16:45:31.358Z,3.92
2023-06-30T16:47:59.948Z,5.60
2023-06-30T16:50:28.491Z,4.95
2023-06-30T16:52:56.941Z,4.28
2023-06-30T16:55:25.642Z,6.97
2023-06-30T16:57:54.252Z,5.70
2023-06-30T17:00:22.817Z,4.93
2023-06-30T17:02:51.720Z,7.68
2023-06-30T17:05:20.919Z,7.18
2023-06-30T17:07:50.876Z,6.15
2023-06-30T17:10:19.142Z,11.50
2023-06-30T17:12:47.613Z,8.75
2023-06-30T17:15:16.015Z,10.50
2023-06-30T17:17:44.528Z,13.10
2023-06-30T17:20:13.233Z,6.68
2023-06-30T17:22:41.560Z,5.85
2023-06-30T17:25:10.416Z,6.03
2023-06-30T17:27:38.825Z,5.85
2023-06-30T17:30:07.758Z,5.78
2023-06-30T17:32:36.283Z,7.18
2023-06-30T17:35:05.064Z,6.78
2023-06-30T17:37:33.664Z,4.20
2023-06-30T17:40:01.832Z,5.63
2023-06-30T17:42:30.190Z,5.60
2023-06-30T17:44:58.655Z,5.07
2023-06-30T17:47:26.956Z,4.68
2023-06-30T17:49:55.510Z,6.07
2023-06-30T17:52:23.869Z,6.50
2023-06-30T17:54:52.241Z,7.57
2023-06-30T17:57:20.765Z,6.57
2023-06-30T17:59:49.166Z,5.47
2023-06-30T18:02:17.881Z,4.70
2023-06-30T18:04:46.696Z,6.40
2023-06-30T18:07:15.056Z,5.75
2023-06-30T18:09:44.932Z,5.00
2023-06-30T18:12:14.145Z,4.32
2023-06-30T18:14:43.704Z,5.22
2023-06-30T18:17:12.262Z,4.95
2023-06-30T18:19:41.638Z,5.15
2023-06-30T18:22:10.187Z,4.97
2023-06-30T18:24:38.725Z,5.50
2023-06-30T18:27:07.418Z,5.07
2023-06-30T18:29:35.838Z,4.30
2023-06-30T18:32:04.464Z,4.15
2023-06-30T18:34:33.117Z,10.35
2023-06-30T18:37:01.437Z,3.85
2023-06-30T18:39:30.214Z,4.18
2023-06-30T18:41:58.829Z,4.88
2023-06-30T18:44:27.066Z,5.82
2023-06-30T18:46:55.577Z,6.90
2023-06-30T18:49:24.049Z,7.35
2023-06-30T18:51:53.136Z,6.63
2023-06-30T18:54:21.566Z,5.97
2023-06-30T18:56:50.086Z,8.15
2023-06-30T18:59:18.719Z,7.68
2023-06-30T19:01:47.138Z,8.98
2023-06-30T19:04:15.867Z,9.55
2023-06-30T19:06:44.297Z,8.30
2023-06-30T19:09:12.716Z,6.85
2023-06-30T19:11:41.172Z,7.05
2023-06-30T19:14:09.510Z,9.10
2023-06-30T19:16:38.062Z,8.40
2023-06-30T19:19:06.477Z,9.07
2023-06-30T19:21:34.800Z,6.53
2023-06-30T19:24:03.445Z,6.85
2023-06-30T19:26:31.896Z,7.13
2023-06-30T19:29:00.282Z,8.40
2023-06-30T19:31:29.111Z,9.10
2023-06-30T19:33:57.497Z,9.05
2023-06-30T19:36:25.984Z,8.77
2023-06-30T19:38:54.219Z,8.73
2023-06-30T19:41:22.696Z,8.20
2023-06-30T19:43:51.092Z,13.02
2023-06-30T19:46:19.647Z,12.18
2023-06-30T19:51:45.038Z,5.82
2023-06-30T19:54:13.687Z,6.38
2023-06-30T19:56:42.120Z,6.28
2023-06-30T19:59:11.918Z,8.77
2023-06-30T20:01:40.483Z,7.07
2023-06-30T20:04:08.720Z,11.30
2023-06-30T20:06:37.596Z,12.05
2023-06-30T20:09:06.622Z,9.68
2023-06-30T20:11:34.938Z,7.47
2023-06-30T20:14:03.615Z,7.80
2023-06-30T20:16:32.006Z,8.70
2023-06-30T20:19:00.261Z,7.63
2023-06-30T20:21:28.693Z,7.55
2023-06-30T20:23:56.967Z,9.40
2023-06-30T20:26:25.584Z,7.43
2023-06-30T20:28:54.173Z,7.70
2023-06-30T20:31:22.842Z,7.95
2023-06-30T20:33:51.246Z,7.00
2023-06-30T20:36:19.885Z,7.50
2023-06-30T20:38:48.341Z,7.03
2023-06-30T20:41:16.818Z,8.35
2023-06-30T20:43:45.518Z,7.47
2023-06-30T20:46:14.397Z,7.82
2023-06-30T20:48:43.110Z,8.23
2023-06-30T20:51:11.803Z,6.57
2023-06-30T20:53:42.006Z,6.22
2023-06-30T20:56:10.605Z,4.82
2023-06-30T20:58:38.954Z,5.40
2023-06-30T21:01:07.613Z,4.72
2023-06-30T21:04:44.779Z,6.22
2023-06-30T21:07:13.618Z,6.20
2023-06-30T21:09:42.002Z,5.63
2023-06-30T21:12:10.534Z,6.93
2023-06-30T21:14:39.104Z,5.15
2023-06-30T21:17:07.678Z,6.70
2023-06-30T21:19:36.143Z,6.40
2023-06-30T21:22:04.830Z,8.02
2023-06-30T21:24:33.493Z,7.38
2023-06-30T21:27:02.113Z,6.97
2023-06-30T21:29:30.645Z,8.35
2023-06-30T21:31:58.880Z,8.13
2023-06-30T21:34:27.184Z,6.85
2023-06-30T21:36:55.775Z,7.18
2023-06-30T21:39:24.115Z,6.20
2023-06-30T21:41:52.543Z,6.60
2023-06-30T21:44:21.164Z,7.43
2023-06-30T21:46:49.584Z,6.90
2023-06-30T21:49:18.021Z,7.50
2023-06-30T21:51:46.676Z,6.82
2023-06-30T21:54:20.085Z,6.63
2023-06-30T21:56:52.607Z,17.38
2023-06-30T21:59:21.053Z,17.10
2023-06-30T22:01:49.509Z,12.73
2023-06-30T22:04:18.403Z,14.02
2023-06-30T22:06:48.626Z,11.00
2023-06-30T22:09:17.357Z,8.23
2023-06-30T22:11:46.420Z,12.60
2023-06-30T22:16:48.063Z,13.27
2023-06-30T22:19:16.765Z,9.80
2023-06-30T22:21:45.322Z,10.02
2023-06-30T22:24:13.849Z,7.97
2023-06-30T22:26:42.548Z,8.75
2023-06-30T22:29:11.034Z,13.25
2023-06-30T22:31:39.498Z,18.45
2023-06-30T22:34:08.005Z,10.07
2023-06-30T22:36:36.352Z,11.65
2023-06-30T22:39:04.786Z,12.43
2023-06-30T22:41:33.703Z,13.35
2023-06-30T22:44:02.167Z,11.50
2023-06-30T22:46:30.576Z,9.65
2023-06-30T22:48:58.981Z,8.95
2023-06-30T22:51:27.376Z,8.88
2023-06-30T22:53:55.755Z,7.22
2023-06-30T22:56:24.103Z,6.65
2023-06-30T22:58:52.755Z,6.95
2023-06-30T23:01:21.194Z,5.65
2023-06-30T23:03:49.632Z,6.72
2023-06-30T23:07:26.869Z,6.28
2023-06-30T23:09:55.597Z,5.75
2023-06-30T23:12:24.001Z,6.10
2023-06-30T23:14:53.086Z,7.30
2023-06-30T23:17:21.672Z,8.40
2023-06-30T23:19:51.707Z,7.32
2023-06-30T23:22:23.242Z,7.70
2023-06-30T23:24:51.824Z,6.75
2023-06-30T23:27:20.897Z,6.95
2023-06-30T23:29:49.227Z,6.70
2023-06-30T23:32:18.931Z,8.30
2023-06-30T23:34:48.228Z,6.43
2023-06-30T23:37:17.646Z,4.78
2023-06-30T23:39:46.985Z,6.70
2023-06-30T23:42:15.700Z,5.57
2023-06-30T23:44:44.174Z,5.88
2023-06-30T23:47:20.565Z,7.05
2023-06-30T23:49:50.641Z,7.50
2023-06-30T23:52:19.018Z,6.93
2023-06-30T23:54:47.308Z,7.10
2023-06-30T23:57:15.616Z,7.78
2023-06-30T23:59:44.302Z,6.75
